sensor_id;sensor_type;location;lat;lon;timestamp;temperature;humidity
7516;DHT22;3799;47.184;8.538;2022-08-19T00:00:01;18.20;99.90
7516;DHT22;3799;47.184;8.538;2022-08-19T00:02:27;18.30;99.90
7516;DHT22;3799;47.184;8.538;2022-08-19T00:04:53;18.20;99.90
7516;DHT22;3799;47.184;8.538;2022-08-19T00:07:19;18.10;99.90
7516;DHT22;3799;47.184;8.538;2022-08-19T00:09:45;17.90;99.90
7516;DHT22;3799;47.184;8.538;2022-08-19T00:12:10;18.00;99.90
7516;DHT22;3799;47.184;8.538;2022-08-19T00:14:37;18.20;99.90
7516;DHT22;3799;47.184;8.538;2022-08-19T00:17:04;18.30;99.90
7516;DHT22;3799;47.184;8.538;2022-08-19T00:19:30;18.40;99.90
7516;DHT22;3799;47.184;8.538;2022-08-19T00:21:56;18.10;99.90
7516;DHT22;3799;47.184;8.538;2022-08-19T00:24:21;18.20;99.90
7516;DHT22;3799;47.184;8.538;2022-08-19T00:26:48;18.30;99.90
7516;DHT22;3799;47.184;8.538;2022-08-19T00:29:15;18.40;99.90
7516;DHT22;3799;47.184;8.538;2022-08-19T00:31:40;18.60;99.90
7516;DHT22;3799;47.184;8.538;2022-08-19T00:34:08;18.20;99.90
7516;DHT22;3799;47.184;8.538;2022-08-19T00:36:33;18.50;99.90
7516;DHT22;3799;47.184;8.538;2022-08-19T00:39:00;18.30;99.90
7516;DHT22;3799;47.184;8.538;2022-08-19T00:41:25;18.40;99.90
7516;DHT22;3799;47.184;8.538;2022-08-19T00:44:03;18.30;99.90
7516;DHT22;3799;47.184;8.538;2022-08-19T00:46:29;18.10;99.90
7516;DHT22;3799;47.184;8.538;2022-08-19T00:48:55;18.10;99.90
7516;DHT22;3799;47.184;8.538;2022-08-19T00:51:23;18.40;99.90
7516;DHT22;3799;47.184;8.538;2022-08-19T00:53:50;18.10;99.90
7516;DHT22;3799;47.184;8.538;2022-08-19T00:56:16;18.20;99.90
7516;DHT22;3799;47.184;8.538;2022-08-19T00:58:42;18.20;99.90
7516;DHT22;3799;47.184;8.538;2022-08-19T01:01:08;18.40;99.90
7516;DHT22;3799;47.184;8.538;2022-08-19T01:03:34;18.10;99.90
7516;DHT22;3799;47.184;8.538;2022-08-19T01:06:00;18.20;99.90
7516;DHT22;3799;47.184;8.538;2022-08-19T01:08:25;18.20;99.90
7516;DHT22;3799;47.184;8.538;2022-08-19T01:10:52;18.00;99.90
7516;DHT22;3799;47.184;8.538;2022-08-19T01:13:20;18.20;99.90
7516;DHT22;3799;47.184;8.538;2022-08-19T01:15:49;18.20;99.90
7516;DHT22;3799;47.184;8.538;2022-08-19T01:18:15;18.00;99.90
7516;DHT22;3799;47.184;8.538;2022-08-19T01:20:42;18.00;99.90
7516;DHT22;3799;47.184;8.538;2022-08-19T01:23:08;18.10;99.90
7516;DHT22;3799;47.184;8.538;2022-08-19T01:25:44;18.20;99.90
7516;DHT22;3799;47.184;8.538;2022-08-19T01:28:14;18.10;99.90
7516;DHT22;3799;47.184;8.538;2022-08-19T01:30:40;18.10;99.90
7516;DHT22;3799;47.184;8.538;2022-08-19T01:33:06;18.10;99.90
7516;DHT22;3799;47.184;8.538;2022-08-19T01:35:32;18.20;99.90
7516;DHT22;3799;47.184;8.538;2022-08-19T01:37:59;18.10;99.90
7516;DHT22;3799;47.184;8.538;2022-08-19T01:40:28;18.10;99.90
7516;DHT22;3799;47.184;8.538;2022-08-19T01:42:54;17.90;99.90
7516;DHT22;3799;47.184;8.538;2022-08-19T01:45:21;17.90;99.90
7516;DHT22;3799;47.184;8.538;2022-08-19T01:47:47;18.20;99.90
7516;DHT22;3799;47.184;8.538;2022-08-19T01:50:13;18.00;99.90
7516;DHT22;3799;47.184;8.538;2022-08-19T01:52:40;18.00;99.90
7516;DHT22;3799;47.184;8.538;2022-08-19T01:55:07;18.20;99.90
7516;DHT22;3799;47.184;8.538;2022-08-19T01:57:33;18.00;99.90
7516;DHT22;3799;47.184;8.538;2022-08-19T01:59:59;17.80;99.90
7516;DHT22;3799;47.184;8.538;2022-08-19T02:02:28;18.00;99.90
7516;DHT22;3799;47.184;8.538;2022-08-19T02:04:53;17.70;99.90
7516;DHT22;3799;47.184;8.538;2022-08-19T02:07:19;17.80;99.90
7516;DHT22;3799;47.184;8.538;2022-08-19T02:09:47;17.80;99.90
7516;DHT22;3799;47.184;8.538;2022-08-19T02:12:13;17.80;99.90
7516;DHT22;3799;47.184;8.538;2022-08-19T02:14:39;18.00;99.90
7516;DHT22;3799;47.184;8.538;2022-08-19T02:17:05;18.00;99.90
7516;DHT22;3799;47.184;8.538;2022-08-19T02:19:30;17.70;99.90
7516;DHT22;3799;47.184;8.538;2022-08-19T02:21:58;17.80;99.90
7516;DHT22;3799;47.184;8.538;2022-08-19T02:24:24;17.90;99.90
7516;DHT22;3799;47.184;8.538;2022-08-19T02:26:50;17.90;99.90
7516;DHT22;3799;47.184;8.538;2022-08-19T02:29:16;17.80;99.90
7516;DHT22;3799;47.184;8.538;2022-08-19T02:31:42;17.90;99.90
7516;DHT22;3799;47.184;8.538;2022-08-19T02:34:07;18.00;99.90
7516;DHT22;3799;47.184;8.538;2022-08-19T02:36:33;17.70;99.90
7516;DHT22;3799;47.184;8.538;2022-08-19T02:38:59;17.90;99.90
7516;DHT22;3799;47.184;8.538;2022-08-19T02:41:27;18.00;99.90
7516;DHT22;3799;47.184;8.538;2022-08-19T02:43:56;17.90;99.90
7516;DHT22;3799;47.184;8.538;2022-08-19T02:46:30;17.70;99.90
7516;DHT22;3799;47.184;8.538;2022-08-19T02:48:57;17.90;99.90
7516;DHT22;3799;47.184;8.538;2022-08-19T02:51:25;17.80;99.90
7516;DHT22;3799;47.184;8.538;2022-08-19T02:53:51;17.70;99.90
7516;DHT22;3799;47.184;8.538;2022-08-19T02:56:17;17.80;99.90
7516;DHT22;3799;47.184;8.538;2022-08-19T02:58:43;18.00;99.90
7516;DHT22;3799;47.184;8.538;2022-08-19T03:01:10;17.70;99.90
7516;DHT22;3799;47.184;8.538;2022-08-19T03:03:36;18.00;99.90
7516;DHT22;3799;47.184;8.538;2022-08-19T03:06:02;17.80;99.90
7516;DHT22;3799;47.184;8.538;2022-08-19T03:08:28;17.70;99.90
7516;DHT22;3799;47.184;8.538;2022-08-19T03:10:54;18.00;99.90
7516;DHT22;3799;47.184;8.538;2022-08-19T03:13:20;17.60;99.90
7516;DHT22;3799;47.184;8.538;2022-08-19T03:15:46;17.70;99.90
7516;DHT22;3799;47.184;8.538;2022-08-19T03:18:13;17.60;99.90
7516;DHT22;3799;47.184;8.538;2022-08-19T03:20:39;17.70;99.90
7516;DHT22;3799;47.184;8.538;2022-08-19T03:23:05;17.80;99.90
7516;DHT22;3799;47.184;8.538;2022-08-19T03:25:35;17.60;99.90
7516;DHT22;3799;47.184;8.538;2022-08-19T03:28:01;17.70;99.90
7516;DHT22;3799;47.184;8.538;2022-08-19T03:30:26;17.60;99.90
7516;DHT22;3799;47.184;8.538;2022-08-19T03:32:52;17.70;99.90
7516;DHT22;3799;47.184;8.538;2022-08-19T03:35:18;17.70;99.90
7516;DHT22;3799;47.184;8.538;2022-08-19T03:37:44;17.60;99.90
7516;DHT22;3799;47.184;8.538;2022-08-19T03:40:10;17.70;99.90
7516;DHT22;3799;47.184;8.538;2022-08-19T03:42:36;17.60;99.90
7516;DHT22;3799;47.184;8.538;2022-08-19T03:45:02;17.70;99.90
7516;DHT22;3799;47.184;8.538;2022-08-19T03:47:27;17.60;99.90
7516;DHT22;3799;47.184;8.538;2022-08-19T03:49:53;17.50;99.90
7516;DHT22;3799;47.184;8.538;2022-08-19T03:52:19;17.60;99.90
7516;DHT22;3799;47.184;8.538;2022-08-19T03:54:44;17.50;99.90
7516;DHT22;3799;47.184;8.538;2022-08-19T03:57:10;17.40;99.90
7516;DHT22;3799;47.184;8.538;2022-08-19T03:59:36;17.50;99.90
7516;DHT22;3799;47.184;8.538;2022-08-19T04:02:03;17.70;99.90
7516;DHT22;3799;47.184;8.538;2022-08-19T04:04:33;17.60;99.90
7516;DHT22;3799;47.184;8.538;2022-08-19T04:06:58;17.60;99.90
7516;DHT22;3799;47.184;8.538;2022-08-19T04:09:24;17.60;99.90
7516;DHT22;3799;47.184;8.538;2022-08-19T04:11:51;17.40;99.90
7516;DHT22;3799;47.184;8.538;2022-08-19T04:14:20;17.70;99.90
7516;DHT22;3799;47.184;8.538;2022-08-19T04:16:47;17.80;99.90
7516;DHT22;3799;47.184;8.538;2022-08-19T04:19:13;17.60;99.90
7516;DHT22;3799;47.184;8.538;2022-08-19T04:21:39;17.70;99.90
7516;DHT22;3799;47.184;8.538;2022-08-19T04:24:05;17.40;99.90
7516;DHT22;3799;47.184;8.538;2022-08-19T04:26:32;17.60;99.90
7516;DHT22;3799;47.184;8.538;2022-08-19T04:29:03;17.60;99.90
7516;DHT22;3799;47.184;8.538;2022-08-19T04:31:30;17.90;99.90
7516;DHT22;3799;47.184;8.538;2022-08-19T04:33:56;17.90;99.90
7516;DHT22;3799;47.184;8.538;2022-08-19T04:36:24;17.80;99.90
7516;DHT22;3799;47.184;8.538;2022-08-19T04:38:52;17.90;99.90
7516;DHT22;3799;47.184;8.538;2022-08-19T04:41:18;18.00;99.90
7516;DHT22;3799;47.184;8.538;2022-08-19T04:44:02;17.90;99.90
7516;DHT22;3799;47.184;8.538;2022-08-19T04:46:28;17.70;99.90
7516;DHT22;3799;47.184;8.538;2022-08-19T04:48:55;17.60;99.90
7516;DHT22;3799;47.184;8.538;2022-08-19T04:51:22;17.90;99.90
7516;DHT22;3799;47.184;8.538;2022-08-19T04:53:48;17.80;99.90
7516;DHT22;3799;47.184;8.538;2022-08-19T04:56:14;17.80;99.90
7516;DHT22;3799;47.184;8.538;2022-08-19T04:58:41;17.80;99.90
7516;DHT22;3799;47.184;8.538;2022-08-19T05:01:08;17.80;99.90
7516;DHT22;3799;47.184;8.538;2022-08-19T05:03:35;17.60;99.90
7516;DHT22;3799;47.184;8.538;2022-08-19T05:06:05;17.80;99.90
7516;DHT22;3799;47.184;8.538;2022-08-19T05:08:34;17.70;99.90
7516;DHT22;3799;47.184;8.538;2022-08-19T05:11:00;17.60;99.90
7516;DHT22;3799;47.184;8.538;2022-08-19T05:13:26;17.60;99.90
7516;DHT22;3799;47.184;8.538;2022-08-19T05:15:56;17.90;99.90
7516;DHT22;3799;47.184;8.538;2022-08-19T05:18:22;18.00;99.90
7516;DHT22;3799;47.184;8.538;2022-08-19T05:21:13;17.90;99.90
7516;DHT22;3799;47.184;8.538;2022-08-19T05:23:58;17.90;99.90
7516;DHT22;3799;47.184;8.538;2022-08-19T05:26:24;17.70;99.90
7516;DHT22;3799;47.184;8.538;2022-08-19T05:28:52;17.70;99.90
7516;DHT22;3799;47.184;8.538;2022-08-19T05:31:19;17.90;99.90
7516;DHT22;3799;47.184;8.538;2022-08-19T05:33:44;17.90;99.90
7516;DHT22;3799;47.184;8.538;2022-08-19T05:36:10;18.20;99.90
7516;DHT22;3799;47.184;8.538;2022-08-19T05:38:36;18.10;99.90
7516;DHT22;3799;47.184;8.538;2022-08-19T05:41:08;18.40;99.90
7516;DHT22;3799;47.184;8.538;2022-08-19T05:43:34;18.70;99.90
7516;DHT22;3799;47.184;8.538;2022-08-19T05:45:59;18.80;99.90
7516;DHT22;3799;47.184;8.538;2022-08-19T05:48:25;19.00;99.90
7516;DHT22;3799;47.184;8.538;2022-08-19T05:50:51;19.00;99.90
7516;DHT22;3799;47.184;8.538;2022-08-19T05:53:17;19.10;99.90
7516;DHT22;3799;47.184;8.538;2022-08-19T05:55:43;19.20;99.90
7516;DHT22;3799;47.184;8.538;2022-08-19T05:58:09;19.40;99.90
7516;DHT22;3799;47.184;8.538;2022-08-19T06:00:35;19.50;99.90
7516;DHT22;3799;47.184;8.538;2022-08-19T06:03:01;19.40;99.90
7516;DHT22;3799;47.184;8.538;2022-08-19T06:05:31;19.50;99.90
7516;DHT22;3799;47.184;8.538;2022-08-19T06:07:57;19.40;99.90
7516;DHT22;3799;47.184;8.538;2022-08-19T06:10:24;19.50;99.90
7516;DHT22;3799;47.184;8.538;2022-08-19T06:12:51;19.20;99.90
7516;DHT22;3799;47.184;8.538;2022-08-19T06:15:17;19.20;99.90
7516;DHT22;3799;47.184;8.538;2022-08-19T06:17:43;19.20;99.90
7516;DHT22;3799;47.184;8.538;2022-08-19T06:20:10;19.20;99.90
7516;DHT22;3799;47.184;8.538;2022-08-19T06:22:39;19.10;99.90
7516;DHT22;3799;47.184;8.538;2022-08-19T06:25:05;19.20;99.90
7516;DHT22;3799;47.184;8.538;2022-08-19T06:27:31;18.90;99.90
7516;DHT22;3799;47.184;8.538;2022-08-19T06:29:58;18.90;99.90
7516;DHT22;3799;47.184;8.538;2022-08-19T06:32:24;18.90;99.90
7516;DHT22;3799;47.184;8.538;2022-08-19T06:34:49;19.30;99.90
7516;DHT22;3799;47.184;8.538;2022-08-19T06:37:15;19.20;99.90
7516;DHT22;3799;47.184;8.538;2022-08-19T06:39:42;19.30;99.90
7516;DHT22;3799;47.184;8.538;2022-08-19T06:42:08;19.30;99.90
7516;DHT22;3799;47.184;8.538;2022-08-19T06:44:37;19.10;99.90
7516;DHT22;3799;47.184;8.538;2022-08-19T06:47:05;19.00;99.90
7516;DHT22;3799;47.184;8.538;2022-08-19T06:49:32;19.10;99.90
7516;DHT22;3799;47.184;8.538;2022-08-19T06:51:58;19.00;99.90
7516;DHT22;3799;47.184;8.538;2022-08-19T06:54:24;19.20;99.90
7516;DHT22;3799;47.184;8.538;2022-08-19T06:56:50;19.20;99.90
7516;DHT22;3799;47.184;8.538;2022-08-19T06:59:17;19.30;99.90
7516;DHT22;3799;47.184;8.538;2022-08-19T07:01:44;19.10;99.90
7516;DHT22;3799;47.184;8.538;2022-08-19T07:04:13;19.20;99.90
7516;DHT22;3799;47.184;8.538;2022-08-19T07:06:39;18.80;99.90
7516;DHT22;3799;47.184;8.538;2022-08-19T07:09:05;18.90;99.90
7516;DHT22;3799;47.184;8.538;2022-08-19T07:11:31;18.80;99.90
7516;DHT22;3799;47.184;8.538;2022-08-19T07:13:58;18.50;99.90
7516;DHT22;3799;47.184;8.538;2022-08-19T07:16:24;18.60;99.90
7516;DHT22;3799;47.184;8.538;2022-08-19T07:18:50;18.60;99.90
7516;DHT22;3799;47.184;8.538;2022-08-19T07:21:17;18.70;99.90
7516;DHT22;3799;47.184;8.538;2022-08-19T07:23:43;18.40;99.90
7516;DHT22;3799;47.184;8.538;2022-08-19T07:26:11;18.70;99.90
7516;DHT22;3799;47.184;8.538;2022-08-19T07:28:38;18.50;99.90
7516;DHT22;3799;47.184;8.538;2022-08-19T07:31:07;18.70;99.90
7516;DHT22;3799;47.184;8.538;2022-08-19T07:33:34;19.00;99.90
7516;DHT22;3799;47.184;8.538;2022-08-19T07:36:06;19.20;99.90
7516;DHT22;3799;47.184;8.538;2022-08-19T07:38:33;19.40;99.90
7516;DHT22;3799;47.184;8.538;2022-08-19T07:40:59;19.20;99.90
7516;DHT22;3799;47.184;8.538;2022-08-19T07:43:26;19.30;99.90
7516;DHT22;3799;47.184;8.538;2022-08-19T07:45:52;18.80;99.90
7516;DHT22;3799;47.184;8.538;2022-08-19T07:48:22;19.10;99.90
7516;DHT22;3799;47.184;8.538;2022-08-19T07:50:51;18.50;99.90
7516;DHT22;3799;47.184;8.538;2022-08-19T07:53:17;18.50;99.90
7516;DHT22;3799;47.184;8.538;2022-08-19T07:55:43;18.70;99.90
7516;DHT22;3799;47.184;8.538;2022-08-19T07:58:11;18.40;99.90
7516;DHT22;3799;47.184;8.538;2022-08-19T08:00:37;18.40;99.90
7516;DHT22;3799;47.184;8.538;2022-08-19T08:03:03;18.30;99.90
7516;DHT22;3799;47.184;8.538;2022-08-19T08:05:29;18.10;99.90
7516;DHT22;3799;47.184;8.538;2022-08-19T08:08:33;17.90;99.90
7516;DHT22;3799;47.184;8.538;2022-08-19T08:11:20;18.00;99.90
7516;DHT22;3799;47.184;8.538;2022-08-19T08:13:46;17.80;99.90
7516;DHT22;3799;47.184;8.538;2022-08-19T08:16:13;17.50;99.90
7516;DHT22;3799;47.184;8.538;2022-08-19T08:18:39;17.60;99.90
7516;DHT22;3799;47.184;8.538;2022-08-19T08:21:07;17.30;99.90
7516;DHT22;3799;47.184;8.538;2022-08-19T08:23:33;17.20;99.90
7516;DHT22;3799;47.184;8.538;2022-08-19T08:25:59;17.40;99.90
7516;DHT22;3799;47.184;8.538;2022-08-19T08:28:27;17.30;99.90
7516;DHT22;3799;47.184;8.538;2022-08-19T08:30:53;17.40;99.90
7516;DHT22;3799;47.184;8.538;2022-08-19T08:33:21;17.20;99.90
7516;DHT22;3799;47.184;8.538;2022-08-19T08:35:47;17.10;99.90
7516;DHT22;3799;47.184;8.538;2022-08-19T08:38:13;17.30;99.90
7516;DHT22;3799;47.184;8.538;2022-08-19T08:40:52;17.20;99.90
7516;DHT22;3799;47.184;8.538;2022-08-19T08:45:50;17.00;99.90
7516;DHT22;3799;47.184;8.538;2022-08-19T08:48:19;17.10;99.90
7516;DHT22;3799;47.184;8.538;2022-08-19T08:50:46;17.00;99.90
7516;DHT22;3799;47.184;8.538;2022-08-19T08:53:13;17.00;99.90
7516;DHT22;3799;47.184;8.538;2022-08-19T08:55:40;16.90;99.90
7516;DHT22;3799;47.184;8.538;2022-08-19T08:58:07;16.70;99.90
7516;DHT22;3799;47.184;8.538;2022-08-19T09:00:40;16.70;99.90
7516;DHT22;3799;47.184;8.538;2022-08-19T09:03:08;16.60;99.90
7516;DHT22;3799;47.184;8.538;2022-08-19T09:05:45;16.40;99.90
7516;DHT22;3799;47.184;8.538;2022-08-19T09:10:51;16.60;99.90
7516;DHT22;3799;47.184;8.538;2022-08-19T09:16:03;16.70;99.90
7516;DHT22;3799;47.184;8.538;2022-08-19T09:18:41;16.90;99.90
7516;DHT22;3799;47.184;8.538;2022-08-19T09:21:07;16.90;99.90
7516;DHT22;3799;47.184;8.538;2022-08-19T09:23:34;16.70;99.90
7516;DHT22;3799;47.184;8.538;2022-08-19T09:26:00;16.80;99.90
7516;DHT22;3799;47.184;8.538;2022-08-19T09:28:26;16.90;99.90
7516;DHT22;3799;47.184;8.538;2022-08-19T09:30:52;16.80;99.90
7516;DHT22;3799;47.184;8.538;2022-08-19T09:33:18;17.10;99.90
7516;DHT22;3799;47.184;8.538;2022-08-19T09:35:45;17.20;99.90
7516;DHT22;3799;47.184;8.538;2022-08-19T09:38:11;16.70;99.90
7516;DHT22;3799;47.184;8.538;2022-08-19T09:40:37;16.80;99.90
7516;DHT22;3799;47.184;8.538;2022-08-19T09:43:02;16.90;99.90
7516;DHT22;3799;47.184;8.538;2022-08-19T09:45:28;17.20;99.90
7516;DHT22;3799;47.184;8.538;2022-08-19T09:47:54;16.90;99.90
7516;DHT22;3799;47.184;8.538;2022-08-19T09:50:20;17.10;99.90
7516;DHT22;3799;47.184;8.538;2022-08-19T09:52:46;17.00;99.90
7516;DHT22;3799;47.184;8.538;2022-08-19T09:55:11;17.10;99.90
7516;DHT22;3799;47.184;8.538;2022-08-19T09:57:37;16.90;99.90
7516;DHT22;3799;47.184;8.538;2022-08-19T10:00:04;17.00;99.90
7516;DHT22;3799;47.184;8.538;2022-08-19T10:02:30;16.80;99.90
7516;DHT22;3799;47.184;8.538;2022-08-19T10:04:56;16.90;99.90
7516;DHT22;3799;47.184;8.538;2022-08-19T10:07:40;17.10;99.90
7516;DHT22;3799;47.184;8.538;2022-08-19T10:10:06;17.20;99.90
7516;DHT22;3799;47.184;8.538;2022-08-19T10:12:32;16.90;99.90
7516;DHT22;3799;47.184;8.538;2022-08-19T10:14:59;17.10;99.90
7516;DHT22;3799;47.184;8.538;2022-08-19T10:17:25;17.10;99.90
7516;DHT22;3799;47.184;8.538;2022-08-19T10:19:51;17.00;99.90
7516;DHT22;3799;47.184;8.538;2022-08-19T10:22:17;17.10;99.90
7516;DHT22;3799;47.184;8.538;2022-08-19T10:24:43;17.20;99.90
7516;DHT22;3799;47.184;8.538;2022-08-19T10:27:08;17.20;99.90
7516;DHT22;3799;47.184;8.538;2022-08-19T10:29:35;17.30;99.90
7516;DHT22;3799;47.184;8.538;2022-08-19T10:32:01;17.00;99.90
7516;DHT22;3799;47.184;8.538;2022-08-19T10:34:28;17.40;99.90
7516;DHT22;3799;47.184;8.538;2022-08-19T10:36:54;17.30;99.90
7516;DHT22;3799;47.184;8.538;2022-08-19T10:39:20;17.30;99.90
7516;DHT22;3799;47.184;8.538;2022-08-19T10:41:46;17.50;99.90
7516;DHT22;3799;47.184;8.538;2022-08-19T10:44:12;17.20;99.90
7516;DHT22;3799;47.184;8.538;2022-08-19T10:46:39;17.40;99.90
7516;DHT22;3799;47.184;8.538;2022-08-19T10:49:07;17.50;99.90
7516;DHT22;3799;47.184;8.538;2022-08-19T10:51:33;17.40;99.90
7516;DHT22;3799;47.184;8.538;2022-08-19T10:54:17;17.40;99.90
7516;DHT22;3799;47.184;8.538;2022-08-19T10:56:43;17.50;99.90
7516;DHT22;3799;47.184;8.538;2022-08-19T11:01:44;17.40;99.90
7516;DHT22;3799;47.184;8.538;2022-08-19T11:04:10;17.70;99.90
7516;DHT22;3799;47.184;8.538;2022-08-19T11:06:39;17.50;99.90
7516;DHT22;3799;47.184;8.538;2022-08-19T11:09:07;17.90;99.90
7516;DHT22;3799;47.184;8.538;2022-08-19T11:11:33;17.60;99.90
7516;DHT22;3799;47.184;8.538;2022-08-19T11:14:10;17.80;99.90
7516;DHT22;3799;47.184;8.538;2022-08-19T11:16:36;17.90;99.90
7516;DHT22;3799;47.184;8.538;2022-08-19T11:19:04;18.10;99.90
7516;DHT22;3799;47.184;8.538;2022-08-19T11:21:31;18.10;99.90
7516;DHT22;3799;47.184;8.538;2022-08-19T11:23:58;18.10;99.90
7516;DHT22;3799;47.184;8.538;2022-08-19T11:26:24;18.20;99.90
7516;DHT22;3799;47.184;8.538;2022-08-19T11:28:51;18.30;99.90
7516;DHT22;3799;47.184;8.538;2022-08-19T11:31:20;18.20;99.90
7516;DHT22;3799;47.184;8.538;2022-08-19T11:33:46;18.10;99.90
7516;DHT22;3799;47.184;8.538;2022-08-19T11:36:16;18.30;99.90
7516;DHT22;3799;47.184;8.538;2022-08-19T11:38:42;18.40;99.90
7516;DHT22;3799;47.184;8.538;2022-08-19T11:41:08;18.20;99.90
7516;DHT22;3799;47.184;8.538;2022-08-19T11:43:34;18.30;99.90
7516;DHT22;3799;47.184;8.538;2022-08-19T11:45:59;18.20;99.90
7516;DHT22;3799;47.184;8.538;2022-08-19T11:48:28;18.00;99.90
7516;DHT22;3799;47.184;8.538;2022-08-19T11:50:54;18.20;99.90
7516;DHT22;3799;47.184;8.538;2022-08-19T11:53:23;18.10;99.90
7516;DHT22;3799;47.184;8.538;2022-08-19T11:55:49;18.30;99.90
7516;DHT22;3799;47.184;8.538;2022-08-19T11:58:15;18.30;99.90
7516;DHT22;3799;47.184;8.538;2022-08-19T12:00:41;18.40;99.90
7516;DHT22;3799;47.184;8.538;2022-08-19T12:03:07;18.50;99.90
7516;DHT22;3799;47.184;8.538;2022-08-19T12:05:33;18.40;99.90
7516;DHT22;3799;47.184;8.538;2022-08-19T12:07:58;18.10;99.90
7516;DHT22;3799;47.184;8.538;2022-08-19T12:10:24;18.10;99.90
7516;DHT22;3799;47.184;8.538;2022-08-19T12:12:50;18.30;99.90
7516;DHT22;3799;47.184;8.538;2022-08-19T12:15:15;18.50;99.90
7516;DHT22;3799;47.184;8.538;2022-08-19T12:17:41;18.60;99.90
7516;DHT22;3799;47.184;8.538;2022-08-19T12:20:08;18.90;99.90
7516;DHT22;3799;47.184;8.538;2022-08-19T12:22:34;19.30;99.90
7516;DHT22;3799;47.184;8.538;2022-08-19T12:25:00;19.00;99.90
7516;DHT22;3799;47.184;8.538;2022-08-19T12:27:26;18.90;99.90
7516;DHT22;3799;47.184;8.538;2022-08-19T12:29:51;19.20;99.90
7516;DHT22;3799;47.184;8.538;2022-08-19T12:32:17;19.20;99.90
7516;DHT22;3799;47.184;8.538;2022-08-19T12:34:43;18.90;99.90
7516;DHT22;3799;47.184;8.538;2022-08-19T12:37:08;19.20;99.90
7516;DHT22;3799;47.184;8.538;2022-08-19T12:39:35;19.20;99.90
7516;DHT22;3799;47.184;8.538;2022-08-19T12:42:01;18.90;99.90
7516;DHT22;3799;47.184;8.538;2022-08-19T12:44:27;19.30;99.90
7516;DHT22;3799;47.184;8.538;2022-08-19T12:46:53;19.30;99.90
7516;DHT22;3799;47.184;8.538;2022-08-19T12:49:18;19.70;99.90
7516;DHT22;3799;47.184;8.538;2022-08-19T12:51:44;19.60;99.90
7516;DHT22;3799;47.184;8.538;2022-08-19T12:54:09;19.40;99.90
7516;DHT22;3799;47.184;8.538;2022-08-19T12:56:36;19.90;99.90
7516;DHT22;3799;47.184;8.538;2022-08-19T12:59:02;19.60;99.90
7516;DHT22;3799;47.184;8.538;2022-08-19T13:01:28;19.90;99.90
7516;DHT22;3799;47.184;8.538;2022-08-19T13:03:58;19.80;99.90
7516;DHT22;3799;47.184;8.538;2022-08-19T13:06:24;19.70;99.90
7516;DHT22;3799;47.184;8.538;2022-08-19T13:08:49;19.90;99.90
7516;DHT22;3799;47.184;8.538;2022-08-19T13:11:16;19.70;99.90
7516;DHT22;3799;47.184;8.538;2022-08-19T13:13:43;19.70;99.90
7516;DHT22;3799;47.184;8.538;2022-08-19T13:16:10;19.70;99.90
7516;DHT22;3799;47.184;8.538;2022-08-19T13:18:36;19.70;99.90
7516;DHT22;3799;47.184;8.538;2022-08-19T13:21:04;19.80;99.90
7516;DHT22;3799;47.184;8.538;2022-08-19T13:23:30;19.70;99.90
7516;DHT22;3799;47.184;8.538;2022-08-19T13:25:57;19.60;99.90
7516;DHT22;3799;47.184;8.538;2022-08-19T13:28:23;19.50;99.90
7516;DHT22;3799;47.184;8.538;2022-08-19T13:30:51;19.70;99.90
7516;DHT22;3799;47.184;8.538;2022-08-19T13:33:36;19.60;99.90
7516;DHT22;3799;47.184;8.538;2022-08-19T13:36:01;19.60;99.90
7516;DHT22;3799;47.184;8.538;2022-08-19T13:38:27;19.40;99.90
7516;DHT22;3799;47.184;8.538;2022-08-19T13:40:54;19.10;99.90
7516;DHT22;3799;47.184;8.538;2022-08-19T13:43:21;19.00;99.90
7516;DHT22;3799;47.184;8.538;2022-08-19T13:45:47;19.00;99.90
7516;DHT22;3799;47.184;8.538;2022-08-19T13:48:13;19.10;99.90
7516;DHT22;3799;47.184;8.538;2022-08-19T13:50:40;19.10;99.90
7516;DHT22;3799;47.184;8.538;2022-08-19T13:53:07;19.10;99.90
7516;DHT22;3799;47.184;8.538;2022-08-19T13:55:33;19.20;99.90
7516;DHT22;3799;47.184;8.538;2022-08-19T13:57:59;18.70;99.90
7516;DHT22;3799;47.184;8.538;2022-08-19T14:00:28;18.80;99.90
7516;DHT22;3799;47.184;8.538;2022-08-19T14:02:54;18.80;99.90
7516;DHT22;3799;47.184;8.538;2022-08-19T14:05:21;19.00;99.90
7516;DHT22;3799;47.184;8.538;2022-08-19T14:07:46;19.00;99.90
7516;DHT22;3799;47.184;8.538;2022-08-19T14:10:13;18.90;99.90
7516;DHT22;3799;47.184;8.538;2022-08-19T14:12:39;18.90;99.90
7516;DHT22;3799;47.184;8.538;2022-08-19T14:15:05;18.90;99.90
7516;DHT22;3799;47.184;8.538;2022-08-19T14:17:32;19.00;99.90
7516;DHT22;3799;47.184;8.538;2022-08-19T14:20:04;18.90;99.90
7516;DHT22;3799;47.184;8.538;2022-08-19T14:22:34;18.80;99.90
7516;DHT22;3799;47.184;8.538;2022-08-19T14:25:00;19.00;99.90
7516;DHT22;3799;47.184;8.538;2022-08-19T14:27:28;18.80;99.90
7516;DHT22;3799;47.184;8.538;2022-08-19T14:29:54;18.80;99.90
7516;DHT22;3799;47.184;8.538;2022-08-19T14:32:20;18.50;99.90
7516;DHT22;3799;47.184;8.538;2022-08-19T14:34:46;18.90;99.90
7516;DHT22;3799;47.184;8.538;2022-08-19T14:37:13;18.80;99.90
7516;DHT22;3799;47.184;8.538;2022-08-19T14:39:41;18.90;99.90
7516;DHT22;3799;47.184;8.538;2022-08-19T14:42:07;18.80;99.90
7516;DHT22;3799;47.184;8.538;2022-08-19T14:44:33;19.00;99.90
7516;DHT22;3799;47.184;8.538;2022-08-19T14:46:59;19.30;99.90
7516;DHT22;3799;47.184;8.538;2022-08-19T14:49:25;19.40;99.90
7516;DHT22;3799;47.184;8.538;2022-08-19T14:51:51;19.60;99.90
7516;DHT22;3799;47.184;8.538;2022-08-19T14:54:16;19.70;99.90
7516;DHT22;3799;47.184;8.538;2022-08-19T14:56:42;19.80;99.90
7516;DHT22;3799;47.184;8.538;2022-08-19T14:59:08;19.90;99.90
7516;DHT22;3799;47.184;8.538;2022-08-19T15:01:34;20.10;99.90
7516;DHT22;3799;47.184;8.538;2022-08-19T15:04:00;19.90;99.90
7516;DHT22;3799;47.184;8.538;2022-08-19T15:06:26;20.00;99.90
7516;DHT22;3799;47.184;8.538;2022-08-19T15:08:52;19.60;99.90
7516;DHT22;3799;47.184;8.538;2022-08-19T15:11:19;19.80;99.90
7516;DHT22;3799;47.184;8.538;2022-08-19T15:13:46;19.70;99.90
7516;DHT22;3799;47.184;8.538;2022-08-19T15:16:12;19.90;99.90
7516;DHT22;3799;47.184;8.538;2022-08-19T15:18:40;19.70;99.90
7516;DHT22;3799;47.184;8.538;2022-08-19T15:21:10;19.80;99.90
7516;DHT22;3799;47.184;8.538;2022-08-19T15:23:37;19.60;99.90
7516;DHT22;3799;47.184;8.538;2022-08-19T15:26:03;19.80;99.90
7516;DHT22;3799;47.184;8.538;2022-08-19T15:28:31;20.00;99.90
7516;DHT22;3799;47.184;8.538;2022-08-19T15:30:59;19.80;99.90
7516;DHT22;3799;47.184;8.538;2022-08-19T15:33:24;19.60;99.90
7516;DHT22;3799;47.184;8.538;2022-08-19T15:35:51;19.90;99.90
7516;DHT22;3799;47.184;8.538;2022-08-19T15:38:17;19.70;99.90
7516;DHT22;3799;47.184;8.538;2022-08-19T15:40:47;20.00;99.90
7516;DHT22;3799;47.184;8.538;2022-08-19T15:43:13;19.90;99.90
7516;DHT22;3799;47.184;8.538;2022-08-19T15:45:40;20.20;99.90
7516;DHT22;3799;47.184;8.538;2022-08-19T15:48:06;19.90;99.90
7516;DHT22;3799;47.184;8.538;2022-08-19T15:50:32;20.00;99.90
7516;DHT22;3799;47.184;8.538;2022-08-19T15:53:05;20.10;99.90
7516;DHT22;3799;47.184;8.538;2022-08-19T15:55:34;20.10;99.90
7516;DHT22;3799;47.184;8.538;2022-08-19T15:58:01;20.10;99.90
7516;DHT22;3799;47.184;8.538;2022-08-19T16:00:46;20.10;99.90
7516;DHT22;3799;47.184;8.538;2022-08-19T16:03:30;20.20;99.90
7516;DHT22;3799;47.184;8.538;2022-08-19T16:06:14;20.40;99.90
7516;DHT22;3799;47.184;8.538;2022-08-19T16:08:53;20.00;99.90
7516;DHT22;3799;47.184;8.538;2022-08-19T16:11:19;20.10;99.90